sensor_id;sensor_type;location;lat;lon;timestamp;pressure;altitude;pressure_sealevel;temperature;humidity
14790;BME280;7486;51.010;10.366;2023-03-01T00:00:03;99552.44;;;-4.25;64.85
14790;BME280;7486;51.010;10.366;2023-03-01T00:02:55;99566.97;;;-4.23;64.82
14790;BME280;7486;51.010;10.366;2023-03-01T00:05:45;99558.59;;;-4.28;65.92
14790;BME280;7486;51.010;10.366;2023-03-01T00:08:30;99542.81;;;-4.39;65.91
14790;BME280;7486;51.010;10.366;2023-03-01T00:11:22;99553.75;;;-4.34;65.96
14790;BME280;7486;51.010;10.366;2023-03-01T00:14:07;99561.59;;;-4.35;65.96
14790;BME280;7486;51.010;10.366;2023-03-01T00:16:53;99554.91;;;-4.39;65.68
14790;BME280;7486;51.010;10.366;2023-03-01T00:19:39;99501.75;;;-4.78;65.40
14790;BME280;7486;51.010;10.366;2023-03-01T00:22:26;99555.28;;;-4.47;65.50
14790;BME280;7486;51.010;10.366;2023-03-01T00:25:11;99555.53;;;-4.52;65.79
14790;BME280;7486;51.010;10.366;2023-03-01T00:27:57;99558.03;;;-4.50;66.07
14790;BME280;7486;51.010;10.366;2023-03-01T00:30:42;99552.03;;;-4.51;66.23
14790;BME280;7486;51.010;10.366;2023-03-01T00:33:28;99546.69;;;-4.47;66.62
14790;BME280;7486;51.010;10.366;2023-03-01T00:36:15;99553.44;;;-4.45;66.13
14790;BME280;7486;51.010;10.366;2023-03-01T00:39:02;99545.56;;;-4.42;66.71
14790;BME280;7486;51.010;10.366;2023-03-01T00:41:49;99547.47;;;-4.45;66.07
14790;BME280;7486;51.010;10.366;2023-03-01T00:44:34;99545.34;;;-4.55;65.56
14790;BME280;7486;51.010;10.366;2023-03-01T00:47:20;99537.00;;;-4.60;66.26
14790;BME280;7486;51.010;10.366;2023-03-01T00:50:06;99539.59;;;-4.60;65.92
14790;BME280;7486;51.010;10.366;2023-03-01T00:52:55;99550.22;;;-4.66;65.80
14790;BME280;7486;51.010;10.366;2023-03-01T00:55:41;99549.47;;;-5.02;66.66
14790;BME280;7486;51.010;10.366;2023-03-01T00:58:26;99512.63;;;-5.23;67.75
14790;BME280;7486;51.010;10.366;2023-03-01T01:01:18;99546.16;;;-4.87;67.65
14790;BME280;7486;51.010;10.366;2023-03-01T01:04:06;99550.22;;;-4.83;67.19
14790;BME280;7486;51.010;10.366;2023-03-01T01:06:52;99550.38;;;-4.86;66.91
14790;BME280;7486;51.010;10.366;2023-03-01T01:09:38;99542.72;;;-4.87;67.09
14790;BME280;7486;51.010;10.366;2023-03-01T01:12:23;99558.28;;;-4.89;66.95
14790;BME280;7486;51.010;10.366;2023-03-01T01:15:09;99539.53;;;-4.92;66.85
14790;BME280;7486;51.010;10.366;2023-03-01T01:17:54;99536.41;;;-4.99;66.68
14790;BME280;7486;51.010;10.366;2023-03-01T01:20:40;99533.81;;;-4.99;67.42
14790;BME280;7486;51.010;10.366;2023-03-01T01:23:26;99505.94;;;-5.10;67.56
14790;BME280;7486;51.010;10.366;2023-03-01T01:26:14;99507.69;;;-4.93;67.39
14790;BME280;7486;51.010;10.366;2023-03-01T01:29:03;99515.06;;;-5.20;67.23
14790;BME280;7486;51.010;10.366;2023-03-01T01:31:48;99517.13;;;-5.09;67.92
14790;BME280;7486;51.010;10.366;2023-03-01T01:34:33;99518.63;;;-5.05;67.75
14790;BME280;7486;51.010;10.366;2023-03-01T01:37:19;99510.94;;;-5.07;67.69
14790;BME280;7486;51.010;10.366;2023-03-01T01:40:05;99500.09;;;-5.13;67.65
14790;BME280;7486;51.010;10.366;2023-03-01T01:42:50;99502.50;;;-5.10;67.41
14790;BME280;7486;51.010;10.366;2023-03-01T01:45:36;99472.13;;;-5.22;67.74
14790;BME280;7486;51.010;10.366;2023-03-01T01:48:24;99490.97;;;-5.03;68.34
14790;BME280;7486;51.010;10.366;2023-03-01T01:51:18;99480.34;;;-4.97;67.93
14790;BME280;7486;51.010;10.366;2023-03-01T01:54:31;99456.50;;;-5.19;67.90
14790;BME280;7486;51.010;10.366;2023-03-01T01:57:26;99474.25;;;-4.96;67.71
14790;BME280;7486;51.010;10.366;2023-03-01T02:00:24;99397.88;;;-5.52;67.81
14790;BME280;7486;51.010;10.366;2023-03-01T02:03:13;99430.34;;;-5.30;68.10
14790;BME280;7486;51.010;10.366;2023-03-01T02:09:11;99398.56;;;-5.48;67.57
14790;BME280;7486;51.010;10.366;2023-03-01T02:11:58;99478.50;;;-4.95;67.80
14790;BME280;7486;51.010;10.366;2023-03-01T02:14:44;99407.66;;;-5.41;67.90
14790;BME280;7486;51.010;10.366;2023-03-01T02:17:30;99475.00;;;-4.94;68.07
14790;BME280;7486;51.010;10.366;2023-03-01T02:23:07;99468.69;;;-4.88;67.68
14790;BME280;7486;51.010;10.366;2023-03-01T02:28:46;99365.81;;;-5.47;67.57
14790;BME280;7486;51.010;10.366;2023-03-01T02:31:32;99440.75;;;-4.97;67.89
14790;BME280;7486;51.010;10.366;2023-03-01T02:34:20;99444.53;;;-4.87;68.04
14790;BME280;7486;51.010;10.366;2023-03-01T02:37:13;99427.72;;;-4.96;67.71
14790;BME280;7486;51.010;10.366;2023-03-01T02:40:03;99381.63;;;-5.36;67.58
14790;BME280;7486;51.010;10.366;2023-03-01T02:42:56;99365.97;;;-5.51;67.72
14790;BME280;7486;51.010;10.366;2023-03-01T02:45:50;99453.56;;;-4.96;68.06
14790;BME280;7486;51.010;10.366;2023-03-01T02:48:41;99449.03;;;-4.91;67.86
14790;BME280;7486;51.010;10.366;2023-03-01T02:55:06;99453.00;;;-5.01;67.88
14790;BME280;7486;51.010;10.366;2023-03-01T02:57:53;99449.56;;;-5.02;67.72
14790;BME280;7486;51.010;10.366;2023-03-01T03:00:42;99448.91;;;-5.22;68.51
14790;BME280;7486;51.010;10.366;2023-03-01T03:03:27;99449.25;;;-5.13;68.61
14790;BME280;7486;51.010;10.366;2023-03-01T03:06:13;99419.19;;;-5.31;68.14
14790;BME280;7486;51.010;10.366;2023-03-01T03:08:59;99448.19;;;-5.09;68.49
14790;BME280;7486;51.010;10.366;2023-03-01T03:11:45;99454.94;;;-5.06;68.32
14790;BME280;7486;51.010;10.366;2023-03-01T03:14:31;99448.81;;;-5.04;68.10
14790;BME280;7486;51.010;10.366;2023-03-01T03:17:16;99432.94;;;-5.13;68.58
14790;BME280;7486;51.010;10.366;2023-03-01T03:20:03;99453.31;;;-5.07;68.24
14790;BME280;7486;51.010;10.366;2023-03-01T03:22:52;99446.47;;;-5.08;68.18
14790;BME280;7486;51.010;10.366;2023-03-01T03:25:37;99449.09;;;-5.10;67.82
14790;BME280;7486;51.010;10.366;2023-03-01T03:28:23;99408.28;;;-5.36;67.74
14790;BME280;7486;51.010;10.366;2023-03-01T03:31:09;99446.94;;;-5.17;68.16
14790;BME280;7486;51.010;10.366;2023-03-01T03:33:54;99433.41;;;-5.22;68.33
14790;BME280;7486;51.010;10.366;2023-03-01T03:36:39;99440.25;;;-5.56;69.59
14790;BME280;7486;51.010;10.366;2023-03-01T03:39:26;99417.75;;;-5.71;70.39
14790;BME280;7486;51.010;10.366;2023-03-01T03:42:11;99442.00;;;-5.39;69.98
14790;BME280;7486;51.010;10.366;2023-03-01T03:44:57;99440.53;;;-5.44;70.38
14790;BME280;7486;51.010;10.366;2023-03-01T03:47:43;99439.47;;;-5.40;70.76
14790;BME280;7486;51.010;10.366;2023-03-01T03:50:28;99435.53;;;-5.30;70.56
14790;BME280;7486;51.010;10.366;2023-03-01T03:53:14;99422.22;;;-5.23;70.34
14790;BME280;7486;51.010;10.366;2023-03-01T03:55:59;99423.06;;;-5.22;69.77
14790;BME280;7486;51.010;10.366;2023-03-01T03:58:44;99414.41;;;-5.21;69.97
14790;BME280;7486;51.010;10.366;2023-03-01T04:01:30;99418.81;;;-5.23;69.75
14790;BME280;7486;51.010;10.366;2023-03-01T04:04:15;99401.81;;;-5.44;70.37
14790;BME280;7486;51.010;10.366;2023-03-01T04:07:01;99409.44;;;-5.41;70.15
14790;BME280;7486;51.010;10.366;2023-03-01T04:09:46;99322.72;;;-6.14;70.56
14790;BME280;7486;51.010;10.366;2023-03-01T04:12:32;99413.28;;;-5.67;71.09
14790;BME280;7486;51.010;10.366;2023-03-01T04:15:18;99417.59;;;-5.68;70.83
14790;BME280;7486;51.010;10.366;2023-03-01T04:18:04;99425.97;;;-5.80;70.83
14790;BME280;7486;51.010;10.366;2023-03-01T04:20:50;99414.09;;;-5.84;71.48
14790;BME280;7486;51.010;10.366;2023-03-01T04:23:36;99415.94;;;-5.86;71.06
14790;BME280;7486;51.010;10.366;2023-03-01T04:26:21;99425.78;;;-5.94;71.25
14790;BME280;7486;51.010;10.366;2023-03-01T04:29:06;99421.19;;;-6.06;71.51
14790;BME280;7486;51.010;10.366;2023-03-01T04:31:52;99360.84;;;-6.38;71.74
14790;BME280;7486;51.010;10.366;2023-03-01T04:34:37;99403.38;;;-6.11;71.80
14790;BME280;7486;51.010;10.366;2023-03-01T04:37:23;99328.81;;;-6.70;72.80
14790;BME280;7486;51.010;10.366;2023-03-01T04:40:09;99403.97;;;-6.06;72.00
14790;BME280;7486;51.010;10.366;2023-03-01T04:42:55;99326.44;;;-6.56;71.86
14790;BME280;7486;51.010;10.366;2023-03-01T04:45:40;99404.59;;;-6.00;71.32
14790;BME280;7486;51.010;10.366;2023-03-01T04:48:25;99402.31;;;-6.07;71.49
14790;BME280;7486;51.010;10.366;2023-03-01T04:51:11;99372.53;;;-6.31;71.30
14790;BME280;7486;51.010;10.366;2023-03-01T04:53:57;99402.81;;;-6.17;71.28
14790;BME280;7486;51.010;10.366;2023-03-01T04:56:42;99405.00;;;-6.27;71.65
14790;BME280;7486;51.010;10.366;2023-03-01T04:59:28;99400.25;;;-6.36;71.79
14790;BME280;7486;51.010;10.366;2023-03-01T05:02:14;99407.28;;;-6.39;71.70
14790;BME280;7486;51.010;10.366;2023-03-01T05:04:59;99397.88;;;-6.40;71.88
14790;BME280;7486;51.010;10.366;2023-03-01T05:07:45;99386.97;;;-6.45;71.45
14790;BME280;7486;51.010;10.366;2023-03-01T05:10:31;99396.22;;;-6.41;71.60
14790;BME280;7486;51.010;10.366;2023-03-01T05:13:19;99405.06;;;-6.47;71.83
14790;BME280;7486;51.010;10.366;2023-03-01T05:16:06;99330.50;;;-6.87;71.51
14790;BME280;7486;51.010;10.366;2023-03-01T05:18:52;99399.59;;;-6.58;71.95
14790;BME280;7486;51.010;10.366;2023-03-01T05:21:38;99400.28;;;-6.55;71.93
14790;BME280;7486;51.010;10.366;2023-03-01T05:24:24;99398.31;;;-6.49;71.98
14790;BME280;7486;51.010;10.366;2023-03-01T05:27:09;99393.84;;;-6.46;71.76
14790;BME280;7486;51.010;10.366;2023-03-01T05:29:56;99381.25;;;-6.52;71.78
14790;BME280;7486;51.010;10.366;2023-03-01T05:32:44;99381.13;;;-6.49;71.51
14790;BME280;7486;51.010;10.366;2023-03-01T05:35:29;99384.97;;;-6.58;71.57
14790;BME280;7486;51.010;10.366;2023-03-01T05:38:18;99392.75;;;-6.59;72.01
14790;BME280;7486;51.010;10.366;2023-03-01T05:41:03;99388.59;;;-6.62;71.40
14790;BME280;7486;51.010;10.366;2023-03-01T05:43:49;99389.69;;;-6.67;72.10
14790;BME280;7486;51.010;10.366;2023-03-01T05:46:34;99364.28;;;-6.93;72.42
14790;BME280;7486;51.010;10.366;2023-03-01T05:49:19;99387.03;;;-6.84;73.16
14790;BME280;7486;51.010;10.366;2023-03-01T05:52:05;99386.31;;;-6.88;74.09
14790;BME280;7486;51.010;10.366;2023-03-01T05:54:51;99396.50;;;-6.66;73.63
14790;BME280;7486;51.010;10.366;2023-03-01T05:57:36;99390.72;;;-6.53;73.32
14790;BME280;7486;51.010;10.366;2023-03-01T06:00:21;99391.13;;;-6.43;72.71
14790;BME280;7486;51.010;10.366;2023-03-01T06:03:10;99395.75;;;-6.31;72.05
14790;BME280;7486;51.010;10.366;2023-03-01T06:05:56;99383.41;;;-6.24;71.45
14790;BME280;7486;51.010;10.366;2023-03-01T06:08:42;99384.00;;;-6.19;71.27
14790;BME280;7486;51.010;10.366;2023-03-01T06:11:28;99380.38;;;-6.15;70.96
14790;BME280;7486;51.010;10.366;2023-03-01T06:14:13;99376.88;;;-6.14;70.28
14790;BME280;7486;51.010;10.366;2023-03-01T06:16:59;99376.25;;;-6.19;70.15
14790;BME280;7486;51.010;10.366;2023-03-01T06:19:44;99321.50;;;-6.60;70.27
14790;BME280;7486;51.010;10.366;2023-03-01T06:22:31;99357.78;;;-6.46;70.89
14790;BME280;7486;51.010;10.366;2023-03-01T06:25:19;99380.63;;;-6.38;71.28
14790;BME280;7486;51.010;10.366;2023-03-01T06:28:04;99386.47;;;-6.35;71.86
14790;BME280;7486;51.010;10.366;2023-03-01T06:30:50;99381.31;;;-6.35;72.42
14790;BME280;7486;51.010;10.366;2023-03-01T06:33:36;99342.94;;;-6.41;72.19
14790;BME280;7486;51.010;10.366;2023-03-01T06:36:21;99391.47;;;-6.13;71.84
14790;BME280;7486;51.010;10.366;2023-03-01T06:39:06;99362.88;;;-6.44;72.67
14790;BME280;7486;51.010;10.366;2023-03-01T06:41:52;99384.81;;;-6.55;74.67
14790;BME280;7486;51.010;10.366;2023-03-01T06:44:39;99388.00;;;-6.49;75.90
14790;BME280;7486;51.010;10.366;2023-03-01T06:47:24;99392.88;;;-6.43;75.00
14790;BME280;7486;51.010;10.366;2023-03-01T06:50:11;99393.03;;;-6.46;76.14
14790;BME280;7486;51.010;10.366;2023-03-01T06:52:57;99387.91;;;-6.29;75.97
14790;BME280;7486;51.010;10.366;2023-03-01T06:55:42;99390.69;;;-6.15;76.07
14790;BME280;7486;51.010;10.366;2023-03-01T06:58:28;99387.22;;;-6.14;75.89
14790;BME280;7486;51.010;10.366;2023-03-01T07:01:13;99392.38;;;-6.14;76.08
14790;BME280;7486;51.010;10.366;2023-03-01T07:03:59;99400.81;;;-6.29;77.46
14790;BME280;7486;51.010;10.366;2023-03-01T07:06:44;99401.09;;;-6.35;77.47
14790;BME280;7486;51.010;10.366;2023-03-01T07:09:29;99398.31;;;-6.31;78.51
14790;BME280;7486;51.010;10.366;2023-03-01T07:12:15;99396.44;;;-6.27;78.68
14790;BME280;7486;51.010;10.366;2023-03-01T07:15:00;99401.19;;;-6.20;78.75
14790;BME280;7486;51.010;10.366;2023-03-01T07:17:45;99397.44;;;-6.13;79.24
14790;BME280;7486;51.010;10.366;2023-03-01T07:20:31;99380.72;;;-5.87;77.94
14790;BME280;7486;51.010;10.366;2023-03-01T07:23:16;99395.22;;;-5.33;76.49
14790;BME280;7486;51.010;10.366;2023-03-01T07:26:02;99386.69;;;-5.18;75.16
14790;BME280;7486;51.010;10.366;2023-03-01T07:28:47;99385.22;;;-5.23;74.09
14790;BME280;7486;51.010;10.366;2023-03-01T07:31:33;99387.59;;;-5.19;73.93
14790;BME280;7486;51.010;10.366;2023-03-01T07:34:18;99392.44;;;-5.13;74.17
14790;BME280;7486;51.010;10.366;2023-03-01T07:37:03;99395.28;;;-5.17;74.34
14790;BME280;7486;51.010;10.366;2023-03-01T07:39:49;99390.13;;;-5.34;75.04
14790;BME280;7486;51.010;10.366;2023-03-01T07:42:34;99386.91;;;-5.22;75.34
14790;BME280;7486;51.010;10.366;2023-03-01T07:45:19;99365.38;;;-5.38;75.82
14790;BME280;7486;51.010;10.366;2023-03-01T07:48:05;99373.13;;;-5.06;75.28
14790;BME280;7486;51.010;10.366;2023-03-01T07:50:50;99380.81;;;-5.04;75.04
14790;BME280;7486;51.010;10.366;2023-03-01T07:53:36;99317.50;;;-5.28;74.90
14790;BME280;7486;51.010;10.366;2023-03-01T07:56:21;99382.16;;;-4.97;74.53
14790;BME280;7486;51.010;10.366;2023-03-01T07:59:07;99382.66;;;-4.90;75.58
14790;BME280;7486;51.010;10.366;2023-03-01T08:01:52;99377.50;;;-4.75;74.62
14790;BME280;7486;51.010;10.366;2023-03-01T08:04:38;99380.19;;;-4.61;74.28
14790;BME280;7486;51.010;10.366;2023-03-01T08:07:23;99383.13;;;-4.35;73.81
14790;BME280;7486;51.010;10.366;2023-03-01T08:10:09;99304.03;;;-5.02;73.87
14790;BME280;7486;51.010;10.366;2023-03-01T08:12:55;99385.94;;;-4.24;74.06
14790;BME280;7486;51.010;10.366;2023-03-01T08:15:40;99343.19;;;-4.45;73.92
14790;BME280;7486;51.010;10.366;2023-03-01T08:18:26;99381.59;;;-4.08;73.05
14790;BME280;7486;51.010;10.366;2023-03-01T08:21:14;99377.75;;;-4.01;72.01
14790;BME280;7486;51.010;10.366;2023-03-01T08:24:00;99383.66;;;-3.99;73.66
14790;BME280;7486;51.010;10.366;2023-03-01T08:26:46;99373.50;;;-4.02;74.25
14790;BME280;7486;51.010;10.366;2023-03-01T08:29:32;99380.84;;;-3.65;71.79
14790;BME280;7486;51.010;10.366;2023-03-01T08:32:18;99375.13;;;-3.85;71.56
14790;BME280;7486;51.010;10.366;2023-03-01T08:35:04;99379.78;;;-3.76;73.49
14790;BME280;7486;51.010;10.366;2023-03-01T08:37:49;99371.22;;;-3.63;73.05
14790;BME280;7486;51.010;10.366;2023-03-01T08:40:34;99377.38;;;-3.50;72.76
14790;BME280;7486;51.010;10.366;2023-03-01T08:43:20;99375.72;;;-3.36;71.49
14790;BME280;7486;51.010;10.366;2023-03-01T08:46:07;99365.72;;;-3.28;69.78
14790;BME280;7486;51.010;10.366;2023-03-01T08:48:52;99362.78;;;-3.08;70.01
14790;BME280;7486;51.010;10.366;2023-03-01T08:51:38;99359.81;;;-3.16;71.20
14790;BME280;7486;51.010;10.366;2023-03-01T08:54:24;99370.72;;;-3.11;70.08
14790;BME280;7486;51.010;10.366;2023-03-01T08:57:09;99359.06;;;-3.18;70.79
14790;BME280;7486;51.010;10.366;2023-03-01T08:59:54;99357.44;;;-3.05;70.20
14790;BME280;7486;51.010;10.366;2023-03-01T09:02:40;99357.31;;;-2.89;68.60
14790;BME280;7486;51.010;10.366;2023-03-01T09:05:26;99353.69;;;-3.01;68.00
14790;BME280;7486;51.010;10.366;2023-03-01T09:08:11;99349.00;;;-3.09;69.16
14790;BME280;7486;51.010;10.366;2023-03-01T09:10:57;99347.88;;;-2.90;69.34
14790;BME280;7486;51.010;10.366;2023-03-01T09:13:43;99313.53;;;-2.94;69.85
14790;BME280;7486;51.010;10.366;2023-03-01T09:16:29;99339.59;;;-2.55;67.88
14790;BME280;7486;51.010;10.366;2023-03-01T09:19:15;99277.31;;;-2.81;68.25
14790;BME280;7486;51.010;10.366;2023-03-01T09:22:03;99347.13;;;-2.37;67.38
14790;BME280;7486;51.010;10.366;2023-03-01T09:24:48;99340.69;;;-2.59;65.93
14790;BME280;7486;51.010;10.366;2023-03-01T09:27:34;99300.84;;;-2.84;69.23
14790;BME280;7486;51.010;10.366;2023-03-01T09:30:20;99330.50;;;-2.48;67.23
14790;BME280;7486;51.010;10.366;2023-03-01T09:33:05;99327.34;;;-2.26;68.19
14790;BME280;7486;51.010;10.366;2023-03-01T09:35:59;99329.13;;;-2.26;67.54
14790;BME280;7486;51.010;10.366;2023-03-01T09:38:45;99323.44;;;-2.19;67.59
14790;BME280;7486;51.010;10.366;2023-03-01T09:41:47;99308.56;;;-2.03;68.18
14790;BME280;7486;51.010;10.366;2023-03-01T09:44:46;99333.13;;;-2.08;66.49
14790;BME280;7486;51.010;10.366;2023-03-01T09:47:34;99317.13;;;-2.41;65.77
14790;BME280;7486;51.010;10.366;2023-03-01T09:50:21;99323.09;;;-2.54;66.92
14790;BME280;7486;51.010;10.366;2023-03-01T09:53:16;99305.06;;;-2.42;68.01
14790;BME280;7486;51.010;10.366;2023-03-01T09:56:32;99318.19;;;-2.31;67.00
14790;BME280;7486;51.010;10.366;2023-03-01T10:08:31;99310.16;;;-1.62;64.23
14790;BME280;7486;51.010;10.366;2023-03-01T10:11:25;99310.06;;;-1.35;65.94
14790;BME280;7486;51.010;10.366;2023-03-01T10:14:36;99314.44;;;-1.11;64.43
14790;BME280;7486;51.010;10.366;2023-03-01T10:21:15;99290.47;;;-1.92;63.76
14790;BME280;7486;51.010;10.366;2023-03-01T10:24:15;99310.63;;;-1.95;63.80
14790;BME280;7486;51.010;10.366;2023-03-01T10:27:09;99295.03;;;-1.95;64.42
14790;BME280;7486;51.010;10.366;2023-03-01T10:30:20;99299.19;;;-2.05;63.86
14790;BME280;7486;51.010;10.366;2023-03-01T10:33:28;99304.50;;;-1.81;64.10
14790;BME280;7486;51.010;10.366;2023-03-01T10:36:16;99290.91;;;-1.85;63.01
14790;BME280;7486;51.010;10.366;2023-03-01T10:39:10;99304.06;;;-1.61;64.58
14790;BME280;7486;51.010;10.366;2023-03-01T10:41:57;99301.03;;;-1.43;62.78
14790;BME280;7486;51.010;10.366;2023-03-01T10:44:47;99290.13;;;-1.48;64.10
14790;BME280;7486;51.010;10.366;2023-03-01T10:47:33;99313.38;;;-1.08;62.03
14790;BME280;7486;51.010;10.366;2023-03-01T10:50:21;99306.22;;;-1.43;60.87
14790;BME280;7486;51.010;10.366;2023-03-01T10:56:14;99242.59;;;-2.00;62.60
14790;BME280;7486;51.010;10.366;2023-03-01T10:59:04;99285.88;;;-1.61;62.45
14790;BME280;7486;51.010;10.366;2023-03-01T11:02:13;99278.88;;;-1.73;61.28
14790;BME280;7486;51.010;10.366;2023-03-01T11:07:59;99208.56;;;-1.96;62.44
14790;BME280;7486;51.010;10.366;2023-03-01T11:10:44;99254.78;;;-1.50;63.37
14790;BME280;7486;51.010;10.366;2023-03-01T11:13:30;99273.13;;;-1.03;63.21
14790;BME280;7486;51.010;10.366;2023-03-01T11:16:26;99263.66;;;-1.04;61.67
14790;BME280;7486;51.010;10.366;2023-03-01T11:22:18;99267.47;;;-0.84;61.09
14790;BME280;7486;51.010;10.366;2023-03-01T11:25:05;99275.50;;;-0.87;60.04
14790;BME280;7486;51.010;10.366;2023-03-01T11:27:55;99274.25;;;-0.94;60.11
14790;BME280;7486;51.010;10.366;2023-03-01T11:30:51;99274.81;;;-0.78;60.32
14790;BME280;7486;51.010;10.366;2023-03-01T11:34:13;99264.34;;;-0.53;59.95
14790;BME280;7486;51.010;10.366;2023-03-01T11:37:04;99269.94;;;-0.46;59.28
14790;BME280;7486;51.010;10.366;2023-03-01T11:40:46;99265.19;;;-0.52;63.27
14790;BME280;7486;51.010;10.366;2023-03-01T11:43:15;99267.00;;;-0.42;61.80
14790;BME280;7486;51.010;10.366;2023-03-01T11:58:19;99270.81;;;-0.11;60.74
14790;BME280;7486;51.010;10.366;2023-03-01T12:07:14;99209.41;;;0.09;60.25
14790;BME280;7486;51.010;10.366;2023-03-01T12:10:23;99249.88;;;0.48;59.79
14790;BME280;7486;51.010;10.366;2023-03-01T12:13:27;99236.59;;;0.51;60.92
14790;BME280;7486;51.010;10.366;2023-03-01T12:16:29;99224.25;;;0.42;57.79
14790;BME280;7486;51.010;10.366;2023-03-01T12:22:12;99214.91;;;0.61;56.10
14790;BME280;7486;51.010;10.366;2023-03-01T12:31:23;99201.50;;;0.55;56.26
14790;BME280;7486;51.010;10.366;2023-03-01T12:51:56;99171.03;;;0.67;54.36
14790;BME280;7486;51.010;10.366;2023-03-01T12:54:44;99152.91;;;0.65;56.59
14790;BME280;7486;51.010;10.366;2023-03-01T12:57:39;99179.47;;;0.92;56.01
14790;BME280;7486;51.010;10.366;2023-03-01T13:00:36;99173.06;;;0.85;55.91
14790;BME280;7486;51.010;10.366;2023-03-01T13:03:36;99179.44;;;1.03;54.61
14790;BME280;7486;51.010;10.366;2023-03-01T13:15:43;99102.38;;;0.23;54.91
14790;BME280;7486;51.010;10.366;2023-03-01T13:18:29;99138.72;;;0.58;55.78
14790;BME280;7486;51.010;10.366;2023-03-01T13:21:29;99173.06;;;0.85;54.48
14790;BME280;7486;51.010;10.366;2023-03-01T13:30:03;99159.16;;;0.96;54.34
14790;BME280;7486;51.010;10.366;2023-03-01T13:32:48;99164.97;;;0.99;54.76
14790;BME280;7486;51.010;10.366;2023-03-01T13:35:42;99157.72;;;1.03;54.39
14790;BME280;7486;51.010;10.366;2023-03-01T13:38:48;99155.34;;;1.11;54.76
14790;BME280;7486;51.010;10.366;2023-03-01T13:44:32;99154.78;;;0.85;52.49
14790;BME280;7486;51.010;10.366;2023-03-01T13:47:20;99120.53;;;0.90;54.47
14790;BME280;7486;51.010;10.366;2023-03-01T13:50:18;99145.59;;;1.13;51.08
14790;BME280;7486;51.010;10.366;2023-03-01T13:53:06;99145.44;;;0.94;53.24
14790;BME280;7486;51.010;10.366;2023-03-01T13:56:01;99141.16;;;0.82;53.34
14790;BME280;7486;51.010;10.366;2023-03-01T13:58:59;99081.84;;;0.52;54.47
14790;BME280;7486;51.010;10.366;2023-03-01T14:01:53;99075.91;;;0.61;53.65
14790;BME280;7486;51.010;10.366;2023-03-01T14:04:41;99114.28;;;0.92;53.28
14790;BME280;7486;51.010;10.366;2023-03-01T14:07:28;99095.63;;;0.86;51.77
14790;BME280;7486;51.010;10.366;2023-03-01T14:10:14;99114.47;;;1.00;53.55
14790;BME280;7486;51.010;10.366;2023-03-01T14:25:27;99090.25;;;1.30;51.76
14790;BME280;7486;51.010;10.366;2023-03-01T14:28:19;99095.91;;;1.15;51.66
14790;BME280;7486;51.010;10.366;2023-03-01T14:34:22;99084.50;;;0.84;52.16
14790;BME280;7486;51.010;10.366;2023-03-01T14:37:16;99087.34;;;0.81;52.13
14790;BME280;7486;51.010;10.366;2023-03-01T14:40:04;99088.72;;;0.96;51.78
14790;BME280;7486;51.010;10.366;2023-03-01T14:42:50;99089.97;;;0.70;51.76
14790;BME280;7486;51.010;10.366;2023-03-01T14:45:36;99018.50;;;0.29;53.65
14790;BME280;7486;51.010;10.366;2023-03-01T14:48:23;99080.72;;;0.88;52.36
14790;BME280;7486;51.010;10.366;2023-03-01T14:51:10;99067.13;;;0.62;52.40
14790;BME280;7486;51.010;10.366;2023-03-01T14:53:57;99084.91;;;0.57;51.45
14790;BME280;7486;51.010;10.366;2023-03-01T14:56:45;99073.44;;;0.48;53.41
14790;BME280;7486;51.010;10.366;2023-03-01T14:59:33;99078.28;;;0.42;53.32
14790;BME280;7486;51.010;10.366;2023-03-01T15:02:21;99072.63;;;0.37;53.50
14790;BME280;7486;51.010;10.366;2023-03-01T15:05:08;99045.41;;;0.30;53.76
14790;BME280;7486;51.010;10.366;2023-03-01T15:07:55;99066.25;;;0.30;53.03
14790;BME280;7486;51.010;10.366;2023-03-01T15:10:56;99073.56;;;0.36;53.58
14790;BME280;7486;51.010;10.366;2023-03-01T15:13:42;99069.19;;;0.25;54.32
14790;BME280;7486;51.010;10.366;2023-03-01T15:16:32;99060.59;;;0.14;55.94
14790;BME280;7486;51.010;10.366;2023-03-01T15:19:19;99068.84;;;0.30;56.05
14790;BME280;7486;51.010;10.366;2023-03-01T15:22:04;99051.44;;;0.19;56.13
14790;BME280;7486;51.010;10.366;2023-03-01T15:24:50;99074.59;;;0.55;55.05
14790;BME280;7486;51.010;10.366;2023-03-01T15:27:35;99078.44;;;0.40;54.33
14790;BME280;7486;51.010;10.366;2023-03-01T15:30:25;99070.38;;;0.21;54.66
14790;BME280;7486;51.010;10.366;2023-03-01T15:36:33;99076.31;;;0.01;55.33
14790;BME280;7486;51.010;10.366;2023-03-01T15:48:15;99069.81;;;-0.16;54.91
14790;BME280;7486;51.010;10.366;2023-03-01T15:51:02;99077.25;;;-0.22;55.77
14790;BME280;7486;51.010;10.366;2023-03-01T15:53:51;99072.16;;;-0.13;54.93
14790;BME280;7486;51.010;10.366;2023-03-01T15:56:38;99075.72;;;-0.14;55.70
14790;BME280;7486;51.010;10.366;2023-03-01T15:59:24;98995.13;;;-0.49;55.21
14790;BME280;7486;51.010;10.366;2023-03-01T16:02:10;99075.13;;;-0.06;54.84
14790;BME280;7486;51.010;10.366;2023-03-01T16:04:56;99074.88;;;-0.03;56.30
14790;BME280;7486;51.010;10.366;2023-03-01T16:07:42;99081.28;;;0.04;55.85
14790;BME280;7486;51.010;10.366;2023-03-01T16:10:27;99087.81;;;-0.02;54.85
14790;BME280;7486;51.010;10.366;2023-03-01T16:13:13;99084.84;;;0.03;56.30
14790;BME280;7486;51.010;10.366;2023-03-01T16:15:59;99078.22;;;-0.01;56.59
14790;BME280;7486;51.010;10.366;2023-03-01T16:18:46;99083.19;;;0.02;56.44
14790;BME280;7486;51.010;10.366;2023-03-01T16:21:32;99070.97;;;-0.20;58.10
14790;BME280;7486;51.010;10.366;2023-03-01T16:24:17;99084.72;;;-0.18;56.46
14790;BME280;7486;51.010;10.366;2023-03-01T16:27:06;99076.56;;;-0.24;56.63
14790;BME280;7486;51.010;10.366;2023-03-01T16:29:51;99081.75;;;-0.24;56.75
14790;BME280;7486;51.010;10.366;2023-03-01T16:32:40;99080.09;;;-0.25;56.88
14790;BME280;7486;51.010;10.366;2023-03-01T16:35:27;99079.59;;;-0.42;56.57
14790;BME280;7486;51.010;10.366;2023-03-01T16:38:12;99086.44;;;-0.41;57.31
14790;BME280;7486;51.010;10.366;2023-03-01T16:40:58;99086.44;;;-0.41;57.07
14790;BME280;7486;51.010;10.366;2023-03-01T16:43:43;99085.47;;;-0.51;57.41
14790;BME280;7486;51.010;10.366;2023-03-01T16:46:29;99064.44;;;-0.48;57.73
14790;BME280;7486;51.010;10.366;2023-03-01T16:49:14;99082.81;;;-0.38;57.37
14790;BME280;7486;51.010;10.366;2023-03-01T16:52:00;99076.28;;;-0.44;57.62
14790;BME280;7486;51.010;10.366;2023-03-01T16:54:45;99070.50;;;-0.36;57.88
14790;BME280;7486;51.010;10.366;2023-03-01T16:57:33;99072.13;;;-0.46;57.44